CEB357 RPVM-RPLK
Flight info
| Callsign | CEB357 |
|---|---|
| Flight time | 0h 31m |
| Altitude | 20000 |
| Route | BATAY2A BATAY W8 MASBA MASBA1B |
| Aircraft | A20N/M-SDE2E3FGHIJ1RWXY/LB1 |
Departure
| Time | 2026-04-24 15:57 |
|---|---|
| Airport | Mactan Cebu International Airport (RPVM) |
Arrival
| Time | 2026-04-24 16:29 |
|---|---|
| Airport | Bicol International Airport (RPLK) |
| Time | Latitude | Longitude | Altitude | Speed | Heading |
|---|---|---|---|---|---|
| 2026-04-24 15:42 | 10.31594 | 123.98025 | 43 ft | 0 kts | 316° |
| 2026-04-24 15:47 | 10.31593 | 123.98026 | 43 ft | 1 kts | 317° |
| 2026-04-24 15:47 | 10.31582 | 123.98038 | 43 ft | 2 kts | 314° |
| 2026-04-24 15:47 | 10.31571 | 123.98048 | 43 ft | 2 kts | 315° |
| 2026-04-24 15:48 | 10.31563 | 123.98057 | 43 ft | 0 kts | 315° |
| 2026-04-24 15:48 | 10.31554 | 123.98068 | 42 ft | 2 kts | 289° |
| 2026-04-24 15:48 | 10.31552 | 123.98083 | 42 ft | 2 kts | 264° |
| 2026-04-24 15:48 | 10.31556 | 123.98097 | 42 ft | 2 kts | 237° |
| 2026-04-24 15:49 | 10.31561 | 123.98104 | 42 ft | 1 kts | 221° |
| 2026-04-24 15:49 | 10.31565 | 123.98108 | 42 ft | 0 kts | 225° |
| 2026-04-24 15:50 | 10.31558 | 123.98100 | 42 ft | 5 kts | 225° |
| 2026-04-24 15:51 | 10.31505 | 123.98045 | 43 ft | 13 kts | 225° |
| 2026-04-24 15:51 | 10.31432 | 123.97972 | 42 ft | 14 kts | 224° |
| 2026-04-24 15:51 | 10.31361 | 123.97907 | 42 ft | 9 kts | 208° |
| 2026-04-24 15:51 | 10.31294 | 123.97927 | 41 ft | 11 kts | 137° |
| 2026-04-24 15:52 | 10.31219 | 123.97977 | 39 ft | 14 kts | 183° |
| 2026-04-24 15:52 | 10.31142 | 123.97914 | 38 ft | 14 kts | 217° |
| 2026-04-24 15:52 | 10.31077 | 123.97856 | 38 ft | 14 kts | 224° |
| 2026-04-24 15:52 | 10.31000 | 123.97779 | 37 ft | 16 kts | 224° |
| 2026-04-24 15:53 | 10.30914 | 123.97694 | 36 ft | 17 kts | 224° |
| 2026-04-24 15:53 | 10.30821 | 123.97598 | 33 ft | 21 kts | 225° |
| 2026-04-24 15:53 | 10.30692 | 123.97470 | 28 ft | 27 kts | 224° |
| 2026-04-24 15:53 | 10.30554 | 123.97332 | 28 ft | 26 kts | 225° |
| 2026-04-24 15:54 | 10.30421 | 123.97199 | 25 ft | 22 kts | 225° |
| 2026-04-24 15:54 | 10.30369 | 123.97162 | 25 ft | 0 kts | 191° |
| 2026-04-24 15:54 | 10.30342 | 123.97167 | 25 ft | 8 kts | 148° |
| 2026-04-24 15:54 | 10.30303 | 123.97207 | 25 ft | 5 kts | 110° |
| 2026-04-24 15:55 | 10.30308 | 123.97225 | 25 ft | 0 kts | 69° |
| 2026-04-24 15:55 | 10.30307 | 123.97228 | 25 ft | 0 kts | 122° |
| 2026-04-24 15:55 | 10.30300 | 123.97234 | 25 ft | 1 kts | 144° |
| 2026-04-24 15:55 | 10.30284 | 123.97243 | 25 ft | 3 kts | 149° |
| 2026-04-24 15:56 | 10.30263 | 123.97256 | 25 ft | 4 kts | 149° |
| 2026-04-24 15:56 | 10.30236 | 123.97275 | 25 ft | 5 kts | 141° |
| 2026-04-24 15:56 | 10.30207 | 123.97302 | 25 ft | 6 kts | 133° |
| 2026-04-24 15:56 | 10.30178 | 123.97348 | 25 ft | 8 kts | 86° |
| 2026-04-24 15:57 | 10.30246 | 123.97422 | 26 ft | 39 kts | 37° |
| 2026-04-24 15:57 | 10.30645 | 123.97834 | 31 ft | 118 kts | 45° |
| 2026-04-24 15:57 | 10.31354 | 123.98553 | 346 ft | 148 kts | 46° |
| 2026-04-24 15:57 | 10.32062 | 123.99284 | 1150 ft | 141 kts | 48° |
| 2026-04-24 15:58 | 10.32724 | 123.99964 | 1948 ft | 134 kts | 49° |
| 2026-04-24 15:58 | 10.33408 | 124.00677 | 2379 ft | 146 kts | 49° |
| 2026-04-24 15:58 | 10.34186 | 124.01489 | 2733 ft | 166 kts | 48° |
| 2026-04-24 15:58 | 10.35173 | 124.02248 | 3150 ft | 187 kts | 21° |
| 2026-04-24 15:59 | 10.36555 | 124.02151 | 3590 ft | 213 kts | 338° |
| 2026-04-24 15:59 | 10.37834 | 124.01217 | 4027 ft | 235 kts | 325° |
| 2026-04-24 15:59 | 10.39367 | 124.00417 | 4460 ft | 250 kts | 352° |
| 2026-04-24 15:59 | 10.41174 | 124.00238 | 5039 ft | 264 kts | 359° |
| 2026-04-24 16:00 | 10.43101 | 124.00100 | 5710 ft | 276 kts | 357° |
| 2026-04-24 16:00 | 10.45045 | 123.99868 | 6553 ft | 280 kts | 354° |
| 2026-04-24 16:00 | 10.47009 | 123.99553 | 7420 ft | 284 kts | 352° |
| 2026-04-24 16:00 | 10.49000 | 123.99178 | 8236 ft | 287 kts | 351° |
| 2026-04-24 16:01 | 10.51018 | 123.98763 | 8992 ft | 292 kts | 351° |
| 2026-04-24 16:01 | 10.53118 | 123.98315 | 9438 ft | 309 kts | 350° |
| 2026-04-24 16:01 | 10.55327 | 123.97830 | 9787 ft | 327 kts | 349° |
| 2026-04-24 16:01 | 10.57651 | 123.97311 | 10109 ft | 345 kts | 349° |
| 2026-04-24 16:02 | 10.60128 | 123.96752 | 10546 ft | 357 kts | 349° |
| 2026-04-24 16:02 | 10.62625 | 123.96187 | 11201 ft | 362 kts | 349° |
| 2026-04-24 16:02 | 10.65134 | 123.95617 | 11865 ft | 365 kts | 349° |
| 2026-04-24 16:02 | 10.67699 | 123.95034 | 12512 ft | 369 kts | 349° |
| 2026-04-24 16:03 | 10.70265 | 123.94450 | 13129 ft | 373 kts | 348° |
| 2026-04-24 16:03 | 10.72842 | 123.93864 | 13716 ft | 376 kts | 349° |
| 2026-04-24 16:03 | 10.75481 | 123.93265 | 14305 ft | 380 kts | 348° |
| 2026-04-24 16:03 | 10.78145 | 123.92660 | 14876 ft | 384 kts | 348° |
| 2026-04-24 16:04 | 10.80808 | 123.92055 | 15430 ft | 387 kts | 348° |
| 2026-04-24 16:04 | 10.83509 | 123.91440 | 15970 ft | 390 kts | 348° |
| 2026-04-24 16:04 | 10.86234 | 123.90820 | 16489 ft | 393 kts | 348° |
| 2026-04-24 16:04 | 10.88978 | 123.90197 | 16986 ft | 397 kts | 348° |
| 2026-04-24 16:05 | 10.94539 | 123.88934 | 17666 ft | 412 kts | 348° |
| 2026-04-24 16:05 | 10.97460 | 123.88269 | 17857 ft | 422 kts | 348° |
| 2026-04-24 16:06 | 11.03484 | 123.86897 | 18202 ft | 442 kts | 348° |
| 2026-04-24 16:06 | 11.06567 | 123.86195 | 18357 ft | 451 kts | 348° |
| 2026-04-24 16:06 | 11.12919 | 123.84751 | 18927 ft | 459 kts | 349° |
| 2026-04-24 16:07 | 11.16169 | 123.84124 | 19288 ft | 461 kts | 351° |
| 2026-04-24 16:07 | 11.19378 | 123.83560 | 19627 ft | 463 kts | 351° |
| 2026-04-24 16:07 | 11.25946 | 123.82429 | 19919 ft | 465 kts | 352° |
| 2026-04-24 16:08 | 11.29187 | 123.81869 | 19926 ft | 465 kts | 352° |
| 2026-04-24 16:08 | 11.35689 | 123.80743 | 19930 ft | 464 kts | 351° |
| 2026-04-24 16:09 | 11.42223 | 123.79606 | 19932 ft | 464 kts | 351° |
| 2026-04-24 16:09 | 11.45486 | 123.79038 | 19931 ft | 464 kts | 351° |
| 2026-04-24 16:09 | 11.48766 | 123.78468 | 19930 ft | 464 kts | 351° |
| 2026-04-24 16:09 | 11.52026 | 123.77899 | 19931 ft | 465 kts | 351° |
| 2026-04-24 16:10 | 11.61859 | 123.76185 | 19933 ft | 471 kts | 351° |
| 2026-04-24 16:11 | 11.68479 | 123.75030 | 19932 ft | 471 kts | 351° |
| 2026-04-24 16:11 | 11.71809 | 123.74449 | 19933 ft | 471 kts | 351° |
| 2026-04-24 16:11 | 11.75097 | 123.73875 | 19931 ft | 471 kts | 351° |
| 2026-04-24 16:12 | 11.81687 | 123.72724 | 19932 ft | 470 kts | 351° |
| 2026-04-24 16:12 | 11.85029 | 123.72141 | 19934 ft | 470 kts | 351° |
| 2026-04-24 16:12 | 11.91613 | 123.70991 | 19934 ft | 471 kts | 351° |
| 2026-04-24 16:13 | 11.94921 | 123.70412 | 19933 ft | 470 kts | 351° |
| 2026-04-24 16:13 | 12.01428 | 123.69274 | 19012 ft | 459 kts | 351° |
| 2026-04-24 16:14 | 12.07844 | 123.68153 | 17443 ft | 452 kts | 351° |
| 2026-04-24 16:14 | 12.10961 | 123.67608 | 16758 ft | 446 kts | 351° |
| 2026-04-24 16:14 | 12.17186 | 123.66521 | 15372 ft | 437 kts | 351° |
| 2026-04-24 16:15 | 12.19217 | 123.66166 | 14950 ft | 435 kts | 351° |
| 2026-04-24 16:15 | 12.26285 | 123.64927 | 13520 ft | 428 kts | 351° |
| 2026-04-24 16:16 | 12.32238 | 123.63883 | 12326 ft | 421 kts | 351° |
| 2026-04-24 16:16 | 12.35171 | 123.63375 | 11738 ft | 418 kts | 352° |
| 2026-04-24 16:17 | 12.43948 | 123.62757 | 10449 ft | 409 kts | 359° |
| 2026-04-24 16:17 | 12.49680 | 123.62547 | 10159 ft | 385 kts | 359° |
| 2026-04-24 16:18 | 12.54911 | 123.62344 | 9824 ft | 345 kts | 359° |
| 2026-04-24 16:18 | 12.59533 | 123.62163 | 9090 ft | 307 kts | 359° |
| 2026-04-24 16:18 | 12.61645 | 123.62080 | 8753 ft | 290 kts | 359° |
| 2026-04-24 16:19 | 12.65620 | 123.61925 | 8115 ft | 274 kts | 359° |
| 2026-04-24 16:19 | 12.67591 | 123.61848 | 7790 ft | 272 kts | 359° |
| 2026-04-24 16:20 | 12.71448 | 123.61697 | 7166 ft | 270 kts | 360° |
| 2026-04-24 16:20 | 12.75262 | 123.61548 | 6556 ft | 267 kts | 359° |
| 2026-04-24 16:20 | 12.77169 | 123.61438 | 6252 ft | 266 kts | 356° |
| 2026-04-24 16:21 | 12.80897 | 123.60917 | 5654 ft | 263 kts | 354° |
| 2026-04-24 16:21 | 12.82756 | 123.60635 | 5354 ft | 262 kts | 354° |
| 2026-04-24 16:21 | 12.84574 | 123.60359 | 5058 ft | 259 kts | 354° |
| 2026-04-24 16:22 | 12.86404 | 123.60086 | 4755 ft | 255 kts | 354° |
| 2026-04-24 16:22 | 12.89856 | 123.59406 | 4187 ft | 245 kts | 339° |
| 2026-04-24 16:22 | 12.91337 | 123.58472 | 3910 ft | 246 kts | 322° |
| 2026-04-24 16:23 | 12.92635 | 123.57266 | 3639 ft | 244 kts | 319° |
| 2026-04-24 16:23 | 12.93886 | 123.56039 | 3373 ft | 242 kts | 319° |
| 2026-04-24 16:23 | 12.95124 | 123.54835 | 3141 ft | 237 kts | 320° |
| 2026-04-24 16:24 | 12.97821 | 123.53635 | 3046 ft | 193 kts | 15° |
| 2026-04-24 16:24 | 12.98993 | 123.54172 | 2999 ft | 172 kts | 41° |
| 2026-04-24 16:24 | 12.99807 | 123.55013 | 2935 ft | 154 kts | 51° |
| 2026-04-24 16:24 | 13.00503 | 123.55819 | 2872 ft | 144 kts | 51° |
| 2026-04-24 16:25 | 13.01192 | 123.56614 | 2803 ft | 144 kts | 51° |
| 2026-04-24 16:25 | 13.01879 | 123.57394 | 2722 ft | 144 kts | 51° |
| 2026-04-24 16:25 | 13.02571 | 123.58172 | 2667 ft | 144 kts | 51° |
| 2026-04-24 16:26 | 13.03917 | 123.59669 | 2325 ft | 138 kts | 51° |
| 2026-04-24 16:26 | 13.04594 | 123.60420 | 2144 ft | 138 kts | 50° |
| 2026-04-24 16:26 | 13.05937 | 123.61868 | 1763 ft | 137 kts | 49° |
| 2026-04-24 16:27 | 13.06611 | 123.62605 | 1545 ft | 136 kts | 50° |
| 2026-04-24 16:27 | 13.07268 | 123.63335 | 1356 ft | 136 kts | 51° |
| 2026-04-24 16:27 | 13.07914 | 123.64066 | 1190 ft | 136 kts | 50° |
| 2026-04-24 16:27 | 13.08577 | 123.64789 | 1002 ft | 136 kts | 50° |
| 2026-04-24 16:28 | 13.09230 | 123.65519 | 804 ft | 135 kts | 50° |
| 2026-04-24 16:28 | 13.09883 | 123.66241 | 618 ft | 134 kts | 49° |
| 2026-04-24 16:28 | 13.11135 | 123.67623 | 317 ft | 111 kts | 48° |
| 2026-04-24 16:29 | 13.11463 | 123.67982 | 307 ft | 23 kts | 47° |
| 2026-04-24 16:29 | 13.11483 | 123.68014 | 306 ft | 2 kts | 113° |
| 2026-04-24 16:29 | 13.11443 | 123.68052 | 306 ft | 4 kts | 136° |
| 2026-04-24 16:30 | 13.11370 | 123.68099 | 308 ft | 6 kts | 179° |
| 2026-04-24 16:30 | 13.11333 | 123.68085 | 309 ft | 5 kts | 204° |
| 2026-04-24 16:30 | 13.11307 | 123.68066 | 309 ft | 4 kts | 204° |
| 2026-04-24 16:31 | 13.11284 | 123.68065 | 310 ft | 2 kts | 157° |
| 2026-04-24 16:31 | 13.11274 | 123.68072 | 310 ft | 1 kts | 143° |
| 2026-04-24 16:31 | 13.11260 | 123.68083 | 310 ft | 6 kts | 141° |
| 2026-04-24 16:31 | 13.11237 | 123.68103 | 310 ft | 1 kts | 139° |
| 2026-04-24 16:32 | 13.11236 | 123.68105 | 310 ft | 0 kts | 139° |